createdAt,value
2017-12-24T00:00:34.035Z,0
2017-12-24T00:01:33.028Z,0
2017-12-24T00:02:33.598Z,0
2017-12-24T00:03:33.701Z,0
2017-12-24T00:04:33.277Z,0
2017-12-24T00:05:34.017Z,0
2017-12-24T00:06:33.535Z,0
2017-12-24T00:07:33.682Z,0
2017-12-24T00:08:33.646Z,0
2017-12-24T00:09:34.664Z,0
2017-12-24T00:10:33.918Z,0
2017-12-24T00:11:34.194Z,0
2017-12-24T00:12:33.304Z,0
2017-12-24T00:13:34.673Z,0
2017-12-24T00:14:33.685Z,0
2017-12-24T00:15:33.802Z,0
2017-12-24T00:16:32.981Z,0
2017-12-24T00:17:33.542Z,0
2017-12-24T00:18:33.778Z,0
2017-12-24T00:19:33.741Z,0
2017-12-24T00:20:33.455Z,0
2017-12-24T00:21:33.190Z,0
2017-12-24T00:22:33.218Z,0
2017-12-24T00:23:32.926Z,0
2017-12-24T00:24:32.929Z,0
2017-12-24T00:25:33.186Z,0
2017-12-24T00:26:33.169Z,0
2017-12-24T00:27:33.366Z,0
2017-12-24T00:28:33.970Z,0
2017-12-24T00:29:33.404Z,0
2017-12-24T00:30:33.160Z,0
2017-12-24T00:31:33.395Z,0
2017-12-24T00:32:33.156Z,0
2017-12-24T00:33:33.386Z,0
2017-12-24T00:34:33.385Z,0
2017-12-24T00:35:33.388Z,0
2017-12-24T00:36:33.132Z,0
2017-12-24T00:37:33.369Z,0
2017-12-24T00:38:33.364Z,0
2017-12-24T00:39:33.371Z,0
2017-12-24T00:40:33.114Z,0
2017-12-24T00:41:33.097Z,0
2017-12-24T00:42:33.348Z,0
2017-12-24T00:43:33.087Z,0
2017-12-24T00:44:33.352Z,0
2017-12-24T00:45:33.669Z,0
2017-12-24T00:46:33.099Z,0
2017-12-24T00:47:33.337Z,0
2017-12-24T00:48:33.115Z,0
2017-12-24T00:49:33.058Z,0
2017-12-24T00:50:32.815Z,0
2017-12-24T00:51:33.303Z,0
2017-12-24T00:52:33.056Z,0
2017-12-24T00:53:32.817Z,0
2017-12-24T00:54:33.288Z,0
2017-12-24T00:55:33.028Z,0
2017-12-24T00:56:33.024Z,0
2017-12-24T00:57:33.022Z,0
2017-12-24T00:58:33.012Z,0
2017-12-24T00:59:33.018Z,0
2017-12-24T01:00:33.274Z,0
2017-12-24T01:01:33.002Z,0
2017-12-24T01:02:33.012Z,0
2017-12-24T01:03:33.260Z,0
2017-12-24T01:04:33.006Z,0
2017-12-24T01:05:32.982Z,0
2017-12-24T01:06:33.241Z,0
2017-12-24T01:07:33.231Z,0
2017-12-24T01:08:32.972Z,0
2017-12-24T01:09:32.964Z,0
2017-12-24T01:10:33.010Z,0
2017-12-24T01:11:32.707Z,0
2017-12-24T01:12:32.693Z,0
2017-12-24T01:13:32.944Z,0
2017-12-24T01:14:33.198Z,0
2017-12-24T01:15:33.189Z,0
2017-12-24T01:16:32.930Z,0
2017-12-24T01:17:32.988Z,0
2017-12-24T01:18:32.928Z,0
2017-12-24T01:19:33.178Z,0
2017-12-24T01:20:33.222Z,0
2017-12-24T01:21:32.901Z,0
2017-12-24T01:22:33.153Z,0
2017-12-24T01:23:32.896Z,0
2017-12-24T01:24:33.153Z,0
2017-12-24T01:25:32.631Z,0
2017-12-24T01:26:33.141Z,0
2017-12-24T01:27:32.622Z,0
2017-12-24T01:28:33.135Z,0
2017-12-24T01:29:32.761Z,0
2017-12-24T01:30:33.114Z,0
2017-12-24T01:31:32.605Z,0
2017-12-24T01:32:32.594Z,0
2017-12-24T01:33:33.100Z,0
2017-12-24T01:34:32.841Z,0
2017-12-24T01:35:33.091Z,0
2017-12-24T01:36:32.830Z,0
2017-12-24T01:37:32.828Z,0
2017-12-24T01:38:33.071Z,0
2017-12-24T01:39:33.070Z,0
2017-12-24T01:40:32.562Z,0
2017-12-24T01:41:32.812Z,0
2017-12-24T01:42:32.809Z,0
2017-12-24T01:43:32.797Z,0
2017-12-24T01:44:34.290Z,0
2017-12-24T01:45:32.783Z,0
2017-12-24T01:46:33.042Z,0
2017-12-24T01:47:33.026Z,0
2017-12-24T01:48:32.778Z,0
2017-12-24T01:49:33.088Z,0
2017-12-24T01:50:33.357Z,0
2017-12-24T01:51:32.911Z,0
2017-12-24T01:52:32.458Z,0
2017-12-24T01:53:32.594Z,0
2017-12-24T01:54:32.813Z,0
2017-12-24T01:55:32.995Z,0
2017-12-24T01:56:33.250Z,0
2017-12-24T01:57:32.599Z,0
2017-12-24T01:58:32.962Z,0
2017-12-24T01:59:35.589Z,0
2017-12-24T02:00:33.021Z,0
2017-12-24T02:01:32.901Z,0
2017-12-24T02:02:33.173Z,0
2017-12-24T02:03:32.605Z,0
2017-12-24T02:04:32.930Z,0
2017-12-24T02:05:33.142Z,0
2017-12-24T02:06:32.907Z,0
2017-12-24T02:07:32.932Z,0
2017-12-24T02:08:32.939Z,0
2017-12-24T02:09:32.931Z,0
2017-12-24T02:10:32.927Z,0
2017-12-24T02:11:32.162Z,0
2017-12-24T02:12:32.921Z,0
2017-12-24T02:13:32.656Z,0
2017-12-24T02:14:32.913Z,0
2017-12-24T02:15:32.643Z,0
2017-12-24T02:16:32.630Z,0
2017-12-24T02:17:32.907Z,0
2017-12-24T02:18:32.883Z,0
2017-12-24T02:19:32.617Z,0
2017-12-24T02:20:32.630Z,0
2017-12-24T02:21:32.618Z,0
2017-12-24T02:22:32.356Z,0
2017-12-24T02:23:32.870Z,0
2017-12-24T02:24:32.854Z,0
2017-12-24T02:25:32.851Z,0
2017-12-24T02:26:32.841Z,0
2017-12-24T02:27:32.328Z,0
2017-12-24T02:28:32.580Z,0
2017-12-24T02:29:32.833Z,0
2017-12-24T02:30:36.022Z,0
2017-12-24T02:31:32.815Z,0
2017-12-24T02:32:32.573Z,0
2017-12-24T02:33:32.822Z,0
2017-12-24T02:34:32.801Z,0
2017-12-24T02:35:32.812Z,0
2017-12-24T02:36:32.801Z,0
2017-12-24T02:37:32.796Z,0
2017-12-24T02:38:32.842Z,0
2017-12-24T02:39:32.782Z,0
2017-12-24T02:40:32.776Z,0
2017-12-24T02:41:32.512Z,0
2017-12-24T02:42:32.764Z,0
2017-12-24T02:43:32.758Z,0
2017-12-24T02:44:32.247Z,0
2017-12-24T02:45:32.697Z,0
2017-12-24T02:46:32.497Z,0
2017-12-24T02:47:32.750Z,0
2017-12-24T02:48:32.484Z,0
2017-12-24T02:49:32.738Z,0
2017-12-24T02:50:32.483Z,0
2017-12-24T02:51:32.716Z,0
2017-12-24T02:52:32.211Z,0
2017-12-24T02:53:32.711Z,0
2017-12-24T02:54:32.701Z,0
2017-12-24T02:55:32.704Z,0
2017-12-24T02:56:32.706Z,0
2017-12-24T02:57:32.702Z,0
2017-12-24T02:58:32.428Z,0
2017-12-24T02:59:32.427Z,0
2017-12-24T03:00:34.022Z,0
2017-12-24T03:01:32.669Z,0
2017-12-24T03:02:32.667Z,0
2017-12-24T03:03:32.459Z,0
2017-12-24T03:04:32.483Z,0
2017-12-24T03:05:32.656Z,0
2017-12-24T03:06:32.651Z,0
2017-12-24T03:07:32.388Z,0
2017-12-24T03:08:32.635Z,0
2017-12-24T03:09:32.628Z,0
2017-12-24T03:10:32.373Z,0
2017-12-24T03:11:32.373Z,0
2017-12-24T03:12:32.373Z,0
2017-12-24T03:13:32.606Z,0
2017-12-24T03:14:32.610Z,0
2017-12-24T03:15:32.608Z,0
2017-12-24T03:16:32.605Z,0
2017-12-24T03:17:32.355Z,0
2017-12-24T03:18:32.607Z,0
2017-12-24T03:19:32.582Z,0
2017-12-24T03:20:32.355Z,0
2017-12-24T03:21:32.320Z,0
2017-12-24T03:22:32.570Z,0
2017-12-24T03:23:32.311Z,0
2017-12-24T03:24:32.297Z,0
2017-12-24T03:25:32.566Z,0
2017-12-24T03:26:32.293Z,0
2017-12-24T03:27:32.554Z,0
2017-12-24T03:28:32.561Z,0
2017-12-24T03:29:32.552Z,0
2017-12-24T03:30:32.533Z,0
2017-12-24T03:31:32.529Z,0
2017-12-24T03:32:32.516Z,0
2017-12-24T03:33:32.521Z,0
2017-12-24T03:34:32.253Z,0
2017-12-24T03:35:32.514Z,0
2017-12-24T03:36:32.546Z,0
2017-12-24T03:37:32.568Z,0
2017-12-24T03:38:32.484Z,0
2017-12-24T03:39:32.483Z,0
2017-12-24T03:40:32.482Z,0
2017-12-24T03:41:32.482Z,0
2017-12-24T03:42:32.216Z,0
2017-12-24T03:43:32.209Z,0
2017-12-24T03:44:32.462Z,0
2017-12-24T03:45:32.472Z,0
2017-12-24T03:46:32.454Z,0
2017-12-24T03:47:32.195Z,0
2017-12-24T03:48:32.451Z,0
2017-12-24T03:49:32.187Z,0
2017-12-24T03:50:32.428Z,0
2017-12-24T03:51:31.927Z,0
2017-12-24T03:52:32.168Z,0
2017-12-24T03:53:32.463Z,0
2017-12-24T03:54:32.159Z,0
2017-12-24T03:55:32.405Z,0
2017-12-24T03:56:32.410Z,0
2017-12-24T03:57:32.147Z,0
2017-12-24T03:58:32.139Z,0
2017-12-24T03:59:32.146Z,0
2017-12-24T04:00:32.380Z,0
2017-12-24T04:01:34.049Z,0
2017-12-24T04:02:32.381Z,0
2017-12-24T04:03:32.129Z,0
2017-12-24T04:04:32.373Z,0
2017-12-24T04:05:32.357Z,0
2017-12-24T04:06:32.363Z,0
2017-12-24T04:07:32.358Z,0
2017-12-24T04:08:32.347Z,0
2017-12-24T04:09:32.093Z,0
2017-12-24T04:10:32.389Z,0
2017-12-24T04:11:32.078Z,0
2017-12-24T04:12:32.073Z,0
2017-12-24T04:13:32.316Z,0
2017-12-24T04:14:32.314Z,0
2017-12-24T04:15:32.308Z,0
2017-12-24T04:16:32.309Z,0
2017-12-24T04:17:32.323Z,0
2017-12-24T04:18:32.049Z,0
2017-12-24T04:19:32.300Z,0
2017-12-24T04:20:32.305Z,0
2017-12-24T04:21:31.781Z,0
2017-12-24T04:22:32.282Z,0
2017-12-24T04:23:32.024Z,0
2017-12-24T04:24:32.016Z,0
2017-12-24T04:25:32.023Z,0
2017-12-24T04:26:32.264Z,0
2017-12-24T04:27:31.747Z,0
2017-12-24T04:28:32.249Z,0
2017-12-24T04:29:32.254Z,0
2017-12-24T04:30:31.756Z,0
2017-12-24T04:31:32.235Z,0
2017-12-24T04:32:32.230Z,0
2017-12-24T04:33:32.229Z,0
2017-12-24T04:34:32.228Z,0
2017-12-24T04:35:31.964Z,0
2017-12-24T04:36:32.212Z,0
2017-12-24T04:37:31.956Z,0
2017-12-24T04:38:31.692Z,0
2017-12-24T04:39:32.197Z,0
2017-12-24T04:40:31.948Z,0
2017-12-24T04:41:32.252Z,0
2017-12-24T04:42:31.938Z,0
2017-12-24T04:43:31.939Z,0
2017-12-24T04:44:31.933Z,0
2017-12-24T04:45:31.934Z,0
2017-12-24T04:46:32.161Z,0
2017-12-24T04:47:32.157Z,0
2017-12-24T04:48:32.161Z,0
2017-12-24T04:49:31.899Z,0
2017-12-24T04:50:32.144Z,0
2017-12-24T04:51:31.894Z,0
2017-12-24T04:52:32.130Z,0
2017-12-24T04:53:31.890Z,0
2017-12-24T04:54:32.115Z,0
2017-12-24T04:55:31.864Z,0
2017-12-24T04:56:31.867Z,0
2017-12-24T04:57:32.107Z,0
2017-12-24T04:58:32.093Z,0
2017-12-24T04:59:31.850Z,0
2017-12-24T05:00:32.085Z,0
2017-12-24T05:01:32.329Z,0
2017-12-24T05:02:32.086Z,0
2017-12-24T05:03:32.085Z,0
2017-12-24T05:04:32.082Z,0
2017-12-24T05:05:31.806Z,0
2017-12-24T05:06:32.063Z,0
2017-12-24T05:07:32.054Z,0
2017-12-24T05:08:32.053Z,0
2017-12-24T05:09:32.048Z,0
2017-12-24T05:10:31.818Z,0
2017-12-24T05:11:31.787Z,0
2017-12-24T05:12:31.774Z,0
2017-12-24T05:13:32.029Z,0
2017-12-24T05:14:32.016Z,0
2017-12-24T05:15:32.026Z,0
2017-12-24T05:16:32.004Z,0
2017-12-24T05:17:31.748Z,0
2017-12-24T05:18:32.003Z,0
2017-12-24T05:19:31.749Z,0
2017-12-24T05:20:32.003Z,0
2017-12-24T05:21:32.001Z,0
2017-12-24T05:22:31.980Z,0
2017-12-24T05:23:31.974Z,0
2017-12-24T05:24:31.713Z,0
2017-12-24T05:25:31.721Z,0
2017-12-24T05:26:31.733Z,0
2017-12-24T05:27:31.712Z,0
2017-12-24T05:28:31.961Z,0
2017-12-24T05:29:31.706Z,0
2017-12-24T05:30:31.684Z,0
2017-12-24T05:31:32.183Z,0
2017-12-24T05:32:31.670Z,0
2017-12-24T05:33:31.922Z,0
2017-12-24T05:34:31.681Z,0
2017-12-24T05:35:31.928Z,0
2017-12-24T05:36:31.926Z,0
2017-12-24T05:37:31.916Z,0
2017-12-24T05:38:31.902Z,0
2017-12-24T05:39:31.638Z,0
2017-12-24T05:40:31.909Z,0
2017-12-24T05:41:31.678Z,0
2017-12-24T05:42:31.376Z,0
2017-12-24T05:43:31.875Z,0
2017-12-24T05:44:31.630Z,0
2017-12-24T05:45:31.887Z,0
2017-12-24T05:46:31.855Z,0
2017-12-24T05:47:31.849Z,0
2017-12-24T05:48:31.588Z,0
2017-12-24T05:49:31.834Z,0
2017-12-24T05:50:31.877Z,0
2017-12-24T05:51:31.572Z,0
2017-12-24T05:52:31.824Z,0
2017-12-24T05:53:31.870Z,0
2017-12-24T05:54:31.820Z,0
2017-12-24T05:55:31.561Z,0
2017-12-24T05:56:31.815Z,0
2017-12-24T05:57:31.794Z,0
2017-12-24T05:58:31.795Z,0
2017-12-24T05:59:31.790Z,0
2017-12-24T06:00:31.532Z,0
2017-12-24T06:01:32.039Z,0
2017-12-24T06:02:31.514Z,0
2017-12-24T06:03:31.759Z,0
2017-12-24T06:04:31.257Z,0
2017-12-24T06:05:31.499Z,0
2017-12-24T06:06:31.510Z,0
2017-12-24T06:07:31.744Z,0
2017-12-24T06:08:31.490Z,0
2017-12-24T06:09:31.476Z,0
2017-12-24T06:10:31.726Z,0
2017-12-24T06:11:31.466Z,0
2017-12-24T06:12:31.466Z,0
2017-12-24T06:13:31.458Z,0
2017-12-24T06:14:31.708Z,0
2017-12-24T06:15:31.699Z,0
2017-12-24T06:16:32.502Z,0
2017-12-24T06:17:31.439Z,0
2017-12-24T06:18:31.437Z,0
2017-12-24T06:19:31.679Z,0
2017-12-24T06:20:31.667Z,0
2017-12-24T06:21:31.412Z,0
2017-12-24T06:22:31.663Z,0
2017-12-24T06:23:31.152Z,0
2017-12-24T06:24:31.397Z,0
2017-12-24T06:25:31.395Z,0
2017-12-24T06:26:31.657Z,0
2017-12-24T06:27:31.636Z,0
2017-12-24T06:28:31.379Z,0
2017-12-24T06:29:31.630Z,0
2017-12-24T06:30:31.120Z,0
2017-12-24T06:31:34.875Z,0
2017-12-24T06:32:31.353Z,0
2017-12-24T06:33:31.354Z,0
2017-12-24T06:34:31.657Z,0
2017-12-24T06:35:31.088Z,0
2017-12-24T06:36:31.342Z,0
2017-12-24T06:37:31.585Z,0
2017-12-24T06:38:31.580Z,0
2017-12-24T06:39:31.328Z,0
2017-12-24T06:40:31.574Z,0
2017-12-24T06:41:31.327Z,4
2017-12-24T06:42:31.329Z,4
2017-12-24T06:43:31.064Z,0
2017-12-24T06:44:30.791Z,0
2017-12-24T06:45:31.581Z,4
2017-12-24T06:46:31.276Z,4
2017-12-24T06:47:31.542Z,4
2017-12-24T06:48:31.532Z,4
2017-12-24T06:49:31.530Z,8
2017-12-24T06:50:31.281Z,4
2017-12-24T06:51:31.270Z,4
2017-12-24T06:52:31.521Z,8
2017-12-24T06:53:31.521Z,8
2017-12-24T06:54:31.507Z,12
2017-12-24T06:55:31.497Z,12
2017-12-24T06:56:31.496Z,12
2017-12-24T06:57:31.231Z,16
2017-12-24T06:58:31.484Z,20
2017-12-24T06:59:31.486Z,20
2017-12-24T07:00:31.475Z,24
2017-12-24T07:01:31.224Z,28
2017-12-24T07:02:36.268Z,28
2017-12-24T07:03:31.212Z,32
2017-12-24T07:04:31.474Z,40
2017-12-24T07:05:31.274Z,44
2017-12-24T07:06:31.191Z,48
2017-12-24T07:07:31.444Z,52
2017-12-24T07:08:31.417Z,60
2017-12-24T07:09:30.678Z,64
2017-12-24T07:10:31.176Z,68
2017-12-24T07:11:30.904Z,76
2017-12-24T07:12:31.401Z,84
2017-12-24T07:13:31.417Z,92
2017-12-24T07:14:31.141Z,100
2017-12-24T07:15:31.399Z,112
2017-12-24T07:16:31.378Z,116
2017-12-24T07:17:31.390Z,124
2017-12-24T07:18:31.110Z,132
2017-12-24T07:19:31.354Z,140
2017-12-24T07:20:31.357Z,152
2017-12-24T07:21:31.104Z,160
2017-12-24T07:22:30.833Z,172
2017-12-24T07:23:31.352Z,188
2017-12-24T07:24:31.096Z,200
2017-12-24T07:25:31.086Z,208
2017-12-24T07:26:31.097Z,220
2017-12-24T07:27:31.313Z,236
2017-12-24T07:28:31.094Z,248
2017-12-24T07:29:31.056Z,260
2017-12-24T07:30:31.305Z,268
2017-12-24T07:31:30.799Z,280
2017-12-24T07:32:31.291Z,296
2017-12-24T07:33:31.281Z,308
2017-12-24T07:34:31.271Z,320
2017-12-24T07:35:31.265Z,332
2017-12-24T07:36:31.266Z,340
2017-12-24T07:37:31.310Z,348
2017-12-24T07:38:31.267Z,364
2017-12-24T07:39:31.246Z,380
2017-12-24T07:40:31.265Z,400
2017-12-24T07:41:31.241Z,408
2017-12-24T07:42:31.239Z,420
2017-12-24T07:43:31.253Z,436
2017-12-24T07:44:31.275Z,460
2017-12-24T07:45:31.207Z,480
2017-12-24T07:46:30.959Z,508
2017-12-24T07:47:31.195Z,536
2017-12-24T07:48:31.190Z,532
2017-12-24T07:49:31.190Z,536
2017-12-24T07:50:30.932Z,552
2017-12-24T07:51:30.928Z,572
2017-12-24T07:52:31.180Z,604
2017-12-24T07:53:30.906Z,644
2017-12-24T07:54:30.655Z,680
2017-12-24T07:55:30.904Z,716
2017-12-24T07:56:30.649Z,760
2017-12-24T07:57:30.637Z,792
2017-12-24T07:58:31.162Z,824
2017-12-24T07:59:30.881Z,856
2017-12-24T08:00:31.139Z,876
2017-12-24T08:01:30.869Z,904
2017-12-24T08:02:31.123Z,952
2017-12-24T08:03:35.809Z,964
2017-12-24T08:04:30.859Z,964
2017-12-24T08:05:30.599Z,968
2017-12-24T08:06:31.113Z,972
2017-12-24T08:07:31.085Z,980
2017-12-24T08:08:31.090Z,992
2017-12-24T08:09:31.079Z,1008
2017-12-24T08:10:31.071Z,1020
2017-12-24T08:11:30.819Z,1040
2017-12-24T08:12:31.071Z,1064
2017-12-24T08:13:30.817Z,1092
2017-12-24T08:14:30.805Z,1124
2017-12-24T08:15:31.059Z,1160
2017-12-24T08:16:31.038Z,1184
2017-12-24T08:17:30.781Z,1212
2017-12-24T08:18:30.776Z,1228
2017-12-24T08:19:30.774Z,1240
2017-12-24T08:20:30.787Z,1272
2017-12-24T08:21:31.017Z,1280
2017-12-24T08:22:31.016Z,1288
2017-12-24T08:23:31.013Z,1292
2017-12-24T08:24:30.750Z,1316
2017-12-24T08:25:30.993Z,1340
2017-12-24T08:26:30.990Z,1352
2017-12-24T08:27:30.736Z,1360
2017-12-24T08:28:30.479Z,1372
2017-12-24T08:29:30.970Z,1384
2017-12-24T08:30:31.005Z,1384
2017-12-24T08:31:30.720Z,1380
2017-12-24T08:32:30.977Z,1384
2017-12-24T08:33:30.719Z,1440
2017-12-24T08:34:31.766Z,1480
2017-12-24T08:35:30.435Z,1496
2017-12-24T08:37:02.791Z,1516
2017-12-24T08:37:30.681Z,1536
2017-12-24T08:38:30.934Z,1628
2017-12-24T08:39:30.929Z,1700
2017-12-24T08:40:30.663Z,1768
2017-12-24T08:41:30.660Z,1824
2017-12-24T08:42:30.918Z,1840
2017-12-24T08:43:30.907Z,1872
2017-12-24T08:44:30.903Z,1868
2017-12-24T08:45:30.897Z,1888
2017-12-24T08:46:30.907Z,1896
2017-12-24T08:47:30.635Z,1900
2017-12-24T08:48:30.876Z,1908
2017-12-24T08:49:30.873Z,1940
2017-12-24T08:50:30.621Z,1948
2017-12-24T08:51:30.379Z,1956
2017-12-24T08:52:30.862Z,1944
2017-12-24T08:53:30.880Z,1972
2017-12-24T08:54:30.599Z,2008
2017-12-24T08:55:30.606Z,2060
2017-12-24T08:56:30.593Z,2120
2017-12-24T08:57:30.584Z,2148
2017-12-24T08:58:30.825Z,2184
2017-12-24T08:59:30.828Z,2208
2017-12-24T09:00:31.007Z,2220
2017-12-24T09:01:30.816Z,2224
2017-12-24T09:02:30.816Z,2248
2017-12-24T09:03:30.827Z,2284
2017-12-24T09:04:31.602Z,2260
2017-12-24T09:05:30.813Z,2192
2017-12-24T09:06:30.557Z,2168
2017-12-24T09:07:30.553Z,2176
2017-12-24T09:08:30.286Z,2240
2017-12-24T09:09:35.336Z,2288
2017-12-24T09:10:30.776Z,2308
2017-12-24T09:11:30.783Z,2272
2017-12-24T09:12:30.769Z,2236
2017-12-24T09:13:30.759Z,2252
2017-12-24T09:14:30.513Z,2280
2017-12-24T09:15:30.770Z,2276
2017-12-24T09:16:30.751Z,2276
2017-12-24T09:17:30.748Z,2216
2017-12-24T09:18:30.496Z,2144
2017-12-24T09:19:30.484Z,2120
2017-12-24T09:20:30.744Z,2068
2017-12-24T09:21:30.492Z,2044
2017-12-24T09:22:30.467Z,2060
2017-12-24T09:23:30.727Z,2124
2017-12-24T09:24:30.713Z,2176
2017-12-24T09:25:30.721Z,2236
2017-12-24T09:26:30.736Z,2296
2017-12-24T09:27:30.455Z,2312
2017-12-24T09:28:30.452Z,2324
2017-12-24T09:29:30.694Z,2296
2017-12-24T09:30:30.696Z,2244
2017-12-24T09:31:30.684Z,2264
2017-12-24T09:32:30.425Z,2324
2017-12-24T09:33:30.752Z,2356
2017-12-24T09:34:30.422Z,2348
2017-12-24T09:35:30.489Z,2344
2017-12-24T09:36:30.678Z,2420
2017-12-24T09:37:30.161Z,2472
2017-12-24T09:38:30.423Z,2496
2017-12-24T09:39:30.656Z,2536
2017-12-24T09:40:30.406Z,2552
2017-12-24T09:41:30.659Z,2540
2017-12-24T09:42:30.657Z,2540
2017-12-24T09:43:30.648Z,2524
2017-12-24T09:44:30.634Z,2532
2017-12-24T09:45:30.624Z,2528
2017-12-24T09:46:30.373Z,2560
2017-12-24T09:47:30.372Z,2580
2017-12-24T09:48:30.111Z,2640
2017-12-24T09:49:30.356Z,2700
2017-12-24T09:50:30.368Z,2728
2017-12-24T09:51:30.348Z,2724
2017-12-24T09:52:30.355Z,2744
2017-12-24T09:53:30.339Z,2844
2017-12-24T09:54:30.609Z,2948
2017-12-24T09:55:30.339Z,3044
2017-12-24T09:56:30.583Z,3108
2017-12-24T09:57:30.582Z,3208
2017-12-24T09:58:30.577Z,3292
2017-12-24T09:59:30.569Z,3376
2017-12-24T10:00:30.575Z,3400
2017-12-24T10:01:30.311Z,3408
2017-12-24T10:02:30.309Z,3432
2017-12-24T10:03:30.555Z,3476
2017-12-24T10:04:30.055Z,3520
2017-12-24T10:05:30.553Z,3592
2017-12-24T10:06:30.383Z,3620
2017-12-24T10:07:30.541Z,3572
2017-12-24T10:08:30.293Z,3540
2017-12-24T10:09:30.545Z,3568
2017-12-24T10:10:30.530Z,3616
2017-12-24T10:11:30.048Z,3620
2017-12-24T10:12:30.526Z,3652
2017-12-24T10:13:30.267Z,3656
2017-12-24T10:14:30.512Z,3632
2017-12-24T10:15:30.265Z,3640
2017-12-24T10:16:30.011Z,3684
2017-12-24T10:17:30.511Z,3716
2017-12-24T10:18:30.244Z,3712
2017-12-24T10:19:30.261Z,3712
2017-12-24T10:20:30.244Z,3732
2017-12-24T10:21:30.232Z,3712
2017-12-24T10:22:29.974Z,3684
2017-12-24T10:52:57.913Z,4116
2017-12-24T10:53:57.900Z,4096
2017-12-24T10:54:57.887Z,4032
2017-12-24T10:55:57.880Z,4028
2017-12-24T10:56:57.876Z,4020
2017-12-24T10:57:58.162Z,3940
2017-12-24T10:58:58.112Z,3916
2017-12-24T10:59:57.872Z,3932
2017-12-24T11:00:58.096Z,3936
2017-12-24T11:01:58.220Z,3936
2017-12-24T11:02:58.081Z,3892
2017-12-24T11:03:57.574Z,3868
2017-12-24T11:04:58.073Z,3840
2017-12-24T11:05:57.557Z,3792
2017-12-24T11:06:58.072Z,3772
2017-12-24T11:07:59.811Z,3808
2017-12-24T11:08:57.575Z,3808
2017-12-24T11:09:57.559Z,3776
2017-12-24T11:10:58.043Z,3768
2017-12-24T11:11:57.786Z,3756
2017-12-24T11:12:57.532Z,3752
2017-12-24T11:13:58.031Z,3784
2017-12-24T11:14:57.768Z,3792
2017-12-24T11:15:58.037Z,3820
2017-12-24T11:16:58.018Z,3812
2017-12-24T11:17:57.773Z,3784
2017-12-24T11:18:57.762Z,3780
2017-12-24T11:19:57.496Z,3800
2017-12-24T11:20:57.768Z,3784
2017-12-24T11:21:57.758Z,3764
2017-12-24T11:22:58.006Z,3748
2017-12-24T11:23:57.984Z,3764
2017-12-24T11:24:57.731Z,3756
2017-12-24T11:25:57.727Z,3700
2017-12-24T11:26:57.977Z,3696
2017-12-24T11:27:57.728Z,3700
2017-12-24T11:28:57.467Z,3636
2017-12-24T11:29:57.716Z,3604
2017-12-24T11:30:57.981Z,3592
2017-12-24T11:31:57.461Z,3596
2017-12-24T11:32:57.710Z,3588
2017-12-24T11:33:57.967Z,3620
2017-12-24T11:34:57.954Z,3708
2017-12-24T11:35:57.441Z,3720
2017-12-24T11:36:57.705Z,3716
2017-12-24T11:38:00.899Z,3792
2017-12-24T11:38:57.697Z,3856
2017-12-24T11:39:57.967Z,3872
2017-12-24T11:40:57.928Z,3900
2017-12-24T11:41:57.927Z,3888
2017-12-24T11:42:57.938Z,3884
2017-12-24T11:43:57.668Z,3880
2017-12-24T11:44:57.921Z,3892
2017-12-24T11:45:57.664Z,3920
2017-12-24T11:46:57.712Z,3932
2017-12-24T11:47:57.669Z,3924
2017-12-24T11:48:57.920Z,3920
2017-12-24T11:49:57.660Z,3948
2017-12-24T11:50:57.981Z,3984
2017-12-24T11:51:57.896Z,4028
2017-12-24T11:52:57.643Z,4016
2017-12-24T11:53:57.888Z,4024
2017-12-24T11:54:57.957Z,4012
2017-12-24T11:55:57.888Z,4020
2017-12-24T11:56:57.889Z,4048
2017-12-24T11:57:57.886Z,3996
2017-12-24T11:58:57.628Z,3916
2017-12-24T11:59:57.632Z,3832
2017-12-24T12:00:57.608Z,3788
2017-12-24T12:01:57.872Z,3808
2017-12-24T12:02:57.873Z,3820
2017-12-24T12:03:57.872Z,3852
2017-12-24T12:04:57.627Z,3876
2017-12-24T12:05:57.865Z,3812
2017-12-24T12:06:57.864Z,3772
2017-12-24T12:07:57.665Z,3744
2017-12-24T12:09:01.089Z,3792
2017-12-24T12:09:57.353Z,3796
2017-12-24T12:10:57.595Z,3772
2017-12-24T12:11:57.839Z,3728
2017-12-24T12:12:57.590Z,3668
2017-12-24T12:13:57.592Z,3592
2017-12-24T12:14:57.588Z,3568
2017-12-24T12:15:57.847Z,3532
2017-12-24T12:16:57.318Z,3560
2017-12-24T12:17:57.824Z,3572
2017-12-24T12:18:57.813Z,3560
2017-12-24T12:19:57.823Z,3556
2017-12-24T12:20:57.568Z,3576
2017-12-24T12:21:57.290Z,3596
2017-12-24T12:22:57.551Z,3664
2017-12-24T12:23:57.560Z,3732
2017-12-24T12:24:57.535Z,3648
2017-12-24T12:25:57.281Z,3572
2017-12-24T12:26:57.786Z,3560
2017-12-24T12:27:57.786Z,3500
2017-12-24T12:28:57.547Z,3408
2017-12-24T12:29:57.783Z,3360
2017-12-24T12:30:57.775Z,3372
2017-12-24T12:31:57.530Z,3384
2017-12-24T12:32:57.767Z,3332
2017-12-24T12:33:57.588Z,3280
2017-12-24T12:34:57.264Z,3248
2017-12-24T12:35:57.753Z,3208
2017-12-24T12:36:57.757Z,3180
2017-12-24T12:37:57.503Z,3188
2017-12-24T12:38:57.738Z,3184
2017-12-24T12:39:57.743Z,3156
2017-12-24T12:40:57.745Z,3148
2017-12-24T12:41:57.732Z,3176
2017-12-24T12:42:57.223Z,3204
2017-12-24T12:43:57.512Z,3200
2017-12-24T12:44:57.466Z,3164
2017-12-24T12:45:57.218Z,3076
2017-12-24T12:46:57.713Z,3016
2017-12-24T12:47:57.470Z,2940
2017-12-24T12:48:57.709Z,2868
2017-12-24T12:49:57.712Z,2832
2017-12-24T12:50:57.717Z,2792
2017-12-24T12:51:57.197Z,2772
2017-12-24T12:52:57.700Z,2772
2017-12-24T12:53:57.438Z,2796
2017-12-24T12:54:57.188Z,2844
2017-12-24T12:55:57.685Z,2876
2017-12-24T12:56:57.686Z,2876
2017-12-24T12:57:57.444Z,2816
2017-12-24T12:58:57.429Z,2756
2017-12-24T12:59:57.172Z,2712
2017-12-24T13:00:57.415Z,2692
2017-12-24T13:01:57.675Z,2664
2017-12-24T13:02:57.665Z,2628
2017-12-24T13:03:57.667Z,2616
2017-12-24T13:04:57.655Z,2640
2017-12-24T13:05:57.409Z,2672
2017-12-24T13:06:57.657Z,2680
2017-12-24T13:07:57.408Z,2664
2017-12-24T13:08:57.651Z,2660
2017-12-24T13:09:57.644Z,2668
2017-12-24T13:10:57.379Z,2644
2017-12-24T13:11:57.404Z,2644
2017-12-24T13:12:57.379Z,2664
2017-12-24T13:13:57.625Z,2632
2017-12-24T13:14:57.623Z,2604
2017-12-24T13:15:57.374Z,2580
2017-12-24T13:16:57.364Z,2604
2017-12-24T13:17:57.364Z,2672
2017-12-24T13:18:57.367Z,2684
2017-12-24T13:19:57.356Z,2636
2017-12-24T13:20:57.604Z,2588
2017-12-24T13:21:57.601Z,2580
2017-12-24T13:22:57.079Z,2576
2017-12-24T13:23:57.600Z,2560
2017-12-24T13:24:57.337Z,2544
2017-12-24T13:25:57.586Z,2512
2017-12-24T13:26:57.584Z,2484
2017-12-24T13:27:57.568Z,2460
2017-12-24T13:28:57.572Z,2440
2017-12-24T13:29:57.306Z,2452
2017-12-24T13:30:57.313Z,2436
2017-12-24T13:31:57.043Z,2388
2017-12-24T13:32:57.556Z,2372
2017-12-24T13:33:57.030Z,2348
2017-12-24T13:34:57.284Z,2340
2017-12-24T13:35:57.024Z,2312
2017-12-24T13:36:57.272Z,2268
2017-12-24T13:37:57.531Z,2240
2017-12-24T13:38:57.515Z,2212
2017-12-24T13:39:57.530Z,2148
2017-12-24T13:40:57.266Z,2100
2017-12-24T13:41:56.763Z,2068
2017-12-24T13:42:57.506Z,2024
2017-12-24T13:43:57.237Z,1996
2017-12-24T13:44:57.249Z,1976
2017-12-24T13:45:57.234Z,1952
2017-12-24T13:46:57.478Z,1932
2017-12-24T13:47:57.467Z,1892
2017-12-24T13:48:57.472Z,1852
2017-12-24T13:49:56.952Z,1840
2017-12-24T13:50:57.199Z,1832
2017-12-24T13:51:57.216Z,1808
2017-12-24T13:52:57.455Z,1784
2017-12-24T13:53:57.189Z,1772
2017-12-24T13:54:57.186Z,1760
2017-12-24T13:55:57.180Z,1736
2017-12-24T13:56:57.422Z,1712
2017-12-24T13:57:57.174Z,1696
2017-12-24T13:58:57.421Z,1672
2017-12-24T13:59:57.406Z,1636
2017-12-24T14:00:57.407Z,1608
2017-12-24T14:01:57.143Z,1580
2017-12-24T14:02:57.390Z,1548
2017-12-24T14:03:57.388Z,1540
2017-12-24T14:04:57.387Z,1520
2017-12-24T14:05:57.384Z,1496
2017-12-24T14:06:57.385Z,1476
2017-12-24T14:07:57.375Z,1456
2017-12-24T14:08:57.375Z,1436
2017-12-24T14:09:56.860Z,1400
2017-12-24T14:10:57.358Z,1388
2017-12-24T14:11:57.114Z,1360
2017-12-24T14:12:57.090Z,1324
2017-12-24T14:13:57.341Z,1308
2017-12-24T14:14:56.854Z,1300
2017-12-24T14:15:57.335Z,1284
2017-12-24T14:16:57.086Z,1252
2017-12-24T14:17:57.342Z,1220
2017-12-24T14:18:57.090Z,1184
2017-12-24T14:19:57.066Z,1148
2017-12-24T14:20:57.048Z,1112
2017-12-24T14:21:57.306Z,1080
2017-12-24T14:22:57.054Z,1056
2017-12-24T14:23:57.293Z,1028
2017-12-24T14:24:57.031Z,1008
2017-12-24T14:25:57.036Z,988
2017-12-24T14:26:57.031Z,964
2017-12-24T14:27:57.045Z,944
2017-12-24T14:28:57.036Z,928
2017-12-24T14:29:57.283Z,912
2017-12-24T14:30:57.272Z,900
2017-12-24T14:31:57.292Z,880
2017-12-24T14:32:57.014Z,872